Time;durP1;ratioP1;P1;durP2;ratioP2;P2;SDS_P1;SDS_P2;PMS_P1;PMS_P2;Temp;Humidity;BMP_temperature;BMP_pressure;BME280_temperature;BME280_humidity;BME280_pressure;Samples;Min_cycle;Max_cycle;Signal;HPM_P1;HPM_P2
2023/07/03 00:01:31;;;;;;;12.45;5.38;;;18.70;99.90;;;;;;4987219;28;20237;-76
2023/07/03 00:04:19;;;;;;;8.13;5.07;;;18.70;99.90;;;;;;4979676;28;20702;-74
2023/07/03 00:07:08;;;;;;;11.85;6.07;;;18.70;99.90;;;;;;4981205;28;20373;-74
2023/07/03 00:09:57;;;;;;;13.40;6.50;;;18.70;99.90;;;;;;4977571;28;20224;-77
2023/07/03 00:12:48;;;;;;;9.25;4.95;;;18.70;99.90;;;;;;4990483;28;20223;-74
2023/07/03 00:15:38;;;;;;;13.85;5.78;;;18.70;99.90;;;;;;4976561;28;20789;-74
2023/07/03 00:18:28;;;;;;;9.60;5.60;;;18.70;99.90;;;;;;4969392;28;20793;-75
2023/07/03 00:21:17;;;;;;;11.25;6.03;;;18.60;99.90;;;;;;4997747;28;20247;-74
2023/07/03 00:24:06;;;;;;;10.77;5.97;;;18.50;99.90;;;;;;4981746;28;20342;-76
2023/07/03 00:26:55;;;;;;;9.93;6.10;;;18.60;99.90;;;;;;4976764;28;20231;-74
2023/07/03 00:29:45;;;;;;;7.97;5.40;;;18.50;99.90;;;;;;4979108;28;20231;-74
2023/07/03 00:32:34;;;;;;;9.95;5.97;;;18.50;99.90;;;;;;4995054;28;20373;-73
2023/07/03 00:35:23;;;;;;;12.45;5.57;;;18.50;99.90;;;;;;4969731;28;20231;-74
2023/07/03 00:38:13;;;;;;;8.68;5.50;;;18.50;99.90;;;;;;4981620;28;20230;-73
2023/07/03 00:41:02;;;;;;;12.90;6.45;;;18.50;99.90;;;;;;4978091;28;20327;-75
2023/07/03 00:43:51;;;;;;;10.05;5.90;;;18.50;99.90;;;;;;4976265;28;20259;-75
2023/07/03 00:46:42;;;;;;;9.98;5.55;;;18.40;99.90;;;;;;4978651;28;20332;-74
2023/07/03 00:49:32;;;;;;;7.70;5.32;;;18.40;99.90;;;;;;4990889;28;20223;-75
2023/07/03 00:52:21;;;;;;;9.75;5.57;;;18.30;99.90;;;;;;4978319;28;20701;-76
2023/07/03 00:55:13;;;;;;;7.13;5.50;;;18.30;99.90;;;;;;4980588;28;20231;-77
2023/07/03 00:58:03;;;;;;;8.93;5.57;;;18.20;99.90;;;;;;4984378;28;20215;-75
2023/07/03 01:00:58;;;;;;;9.43;6.05;;;18.20;99.90;;;;;;4981319;28;20215;-76
2023/07/03 01:03:54;;;;;;;12.45;6.40;;;18.10;99.90;;;;;;4986005;28;20239;-76
2023/07/03 01:06:47;;;;;;;9.75;5.97;;;18.10;99.90;;;;;;4983813;28;20244;-76
2023/07/03 01:09:42;;;;;;;12.60;6.53;;;18.20;99.90;;;;;;4998036;28;20250;-74
2023/07/03 01:12:35;;;;;;;11.55;6.22;;;18.20;99.90;;;;;;4981935;28;20283;-75
2023/07/03 01:15:29;;;;;;;9.15;5.93;;;18.20;99.90;;;;;;4971006;28;20223;-74
2023/07/03 01:18:18;;;;;;;13.43;6.18;;;18.10;99.90;;;;;;4991172;28;20728;-74
2023/07/03 01:21:15;;;;;;;11.07;5.93;;;18.10;99.90;;;;;;4984353;28;20689;-75
2023/07/03 01:24:12;;;;;;;9.73;5.60;;;18.00;99.90;;;;;;4983117;28;20227;-74
2023/07/03 01:27:05;;;;;;;9.60;6.13;;;18.00;99.90;;;;;;4974434;28;20789;-73
2023/07/03 01:29:54;;;;;;;13.45;6.40;;;18.00;99.90;;;;;;4979985;28;20242;-74
2023/07/03 01:32:46;;;;;;;11.13;5.90;;;18.00;99.90;;;;;;4972666;28;20741;-75
2023/07/03 01:35:35;;;;;;;9.05;6.10;;;18.00;99.90;;;;;;4976298;28;20228;-74
2023/07/03 01:38:25;;;;;;;11.13;6.05;;;17.90;99.90;;;;;;4977174;28;20235;-74
2023/07/03 01:41:17;;;;;;;11.25;6.43;;;17.80;99.90;;;;;;4979391;28;20223;-73
2023/07/03 01:44:08;;;;;;;11.85;6.22;;;17.90;99.90;;;;;;4984397;28;20336;-72
2023/07/03 01:47:05;;;;;;;11.88;5.80;;;17.90;99.90;;;;;;4987803;28;20241;-74
2023/07/03 01:49:54;;;;;;;12.80;6.25;;;18.00;99.90;;;;;;4981682;28;20571;-75
2023/07/03 01:52:50;;;;;;;12.50;6.03;;;17.90;99.90;;;;;;4974760;28;20231;-74
2023/07/03 01:55:45;;;;;;;11.25;5.70;;;17.80;99.90;;;;;;4971458;28;20298;-75
2023/07/03 01:58:43;;;;;;;14.35;6.47;;;17.80;99.90;;;;;;4985074;28;20230;-75
2023/07/03 02:01:44;;;;;;;11.07;6.38;;;17.70;99.90;;;;;;4977964;28;20230;-75
2023/07/03 02:04:38;;;;;;;13.75;6.50;;;17.60;99.90;;;;;;4980049;28;20381;-76
2023/07/03 02:07:31;;;;;;;10.50;6.40;;;17.60;99.90;;;;;;4984967;28;20223;-75
2023/07/03 02:10:20;;;;;;;11.63;6.45;;;17.60;99.90;;;;;;4983547;28;20238;-75
2023/07/03 02:13:08;;;;;;;14.35;6.10;;;17.60;99.90;;;;;;4995426;28;20231;-75
2023/07/03 02:15:58;;;;;;;10.15;6.50;;;17.60;99.90;;;;;;4978448;28;20211;-73
2023/07/03 02:18:50;;;;;;;10.25;6.43;;;17.60;99.90;;;;;;5001589;28;20305;-74
2023/07/03 02:21:39;;;;;;;9.85;7.10;;;17.40;99.90;;;;;;4970791;28;20223;-74
2023/07/03 02:24:28;;;;;;;14.00;6.47;;;17.30;99.90;;;;;;4986429;28;20230;-75
2023/07/03 02:27:19;;;;;;;14.95;6.68;;;17.40;99.90;;;;;;4992910;28;20654;-74
2023/07/03 02:30:09;;;;;;;10.27;6.50;;;17.30;99.90;;;;;;4991816;28;20606;-75
2023/07/03 02:32:58;;;;;;;11.52;6.43;;;17.30;99.90;;;;;;4982886;28;20241;-74
2023/07/03 02:35:48;;;;;;;12.77;6.68;;;17.30;99.90;;;;;;4980207;28;20748;-73
2023/07/03 02:38:38;;;;;;;8.77;6.05;;;17.30;99.90;;;;;;4978889;28;20219;-75
2023/07/03 02:41:27;;;;;;;10.55;6.68;;;17.50;99.90;;;;;;4993374;28;20234;-74
2023/07/03 02:44:17;;;;;;;11.63;6.57;;;17.30;99.90;;;;;;4978879;28;20238;-74
2023/07/03 02:47:06;;;;;;;11.05;6.22;;;17.30;99.90;;;;;;4983088;28;20219;-71
2023/07/03 02:49:56;;;;;;;14.90;6.88;;;17.40;99.90;;;;;;4989335;28;20239;-73
2023/07/03 02:52:47;;;;;;;16.20;6.60;;;17.30;99.90;;;;;;4989932;28;20218;-73
2023/07/03 02:55:35;;;;;;;9.75;6.88;;;17.20;99.90;;;;;;4978675;28;20804;-74
2023/07/03 02:58:27;;;;;;;11.80;6.53;;;17.30;99.90;;;;;;4969151;28;20224;-75
2023/07/03 03:01:16;;;;;;;13.30;6.75;;;17.20;99.90;;;;;;4973523;28;20278;-74
2023/07/03 03:04:06;;;;;;;12.13;6.60;;;17.20;99.90;;;;;;4979654;28;20219;-74
2023/07/03 03:06:55;;;;;;;14.38;6.93;;;17.30;99.90;;;;;;4984795;28;21192;-72
2023/07/03 03:09:46;;;;;;;10.80;6.70;;;17.30;99.90;;;;;;4976464;28;20227;-73
2023/07/03 03:12:36;;;;;;;14.50;7.18;;;17.30;99.90;;;;;;4978909;28;20303;-73
2023/07/03 03:15:27;;;;;;;14.55;6.78;;;17.30;99.90;;;;;;4979441;28;20356;-73
2023/07/03 03:18:16;;;;;;;14.15;7.07;;;17.20;99.90;;;;;;4978403;28;20235;-73
2023/07/03 03:21:05;;;;;;;12.20;7.28;;;17.20;99.90;;;;;;4972169;28;20649;-73
2023/07/03 03:23:54;;;;;;;10.25;6.80;;;17.10;99.90;;;;;;4979712;28;20218;-74
2023/07/03 03:26:44;;;;;;;15.07;7.10;;;17.20;99.90;;;;;;4975298;28;20241;-73
2023/07/03 03:29:33;;;;;;;12.15;7.13;;;17.20;99.90;;;;;;4972217;28;20238;-73
2023/07/03 03:32:23;;;;;;;14.30;6.90;;;17.20;99.90;;;;;;4979195;28;20243;-75
2023/07/03 03:35:12;;;;;;;13.32;7.47;;;17.20;99.90;;;;;;4968447;28;20925;-74
2023/07/03 03:38:01;;;;;;;12.50;7.10;;;17.30;99.90;;;;;;4997180;28;20728;-74
2023/07/03 03:40:58;;;;;;;12.15;6.57;;;17.40;99.90;;;;;;4991388;28;20223;-74
2023/07/03 03:43:52;;;;;;;11.20;6.57;;;17.70;99.90;;;;;;4994436;28;20225;-74
2023/07/03 03:46:43;;;;;;;11.57;7.43;;;17.70;99.90;;;;;;4969693;28;20726;-74
2023/07/03 03:49:33;;;;;;;9.93;6.70;;;17.70;99.90;;;;;;4984691;28;20279;-78
2023/07/03 03:52:22;;;;;;;15.27;7.28;;;17.60;99.90;;;;;;4973925;28;20629;-75
2023/07/03 03:55:11;;;;;;;13.82;7.68;;;17.80;99.90;;;;;;4977587;28;20232;-77
2023/07/03 03:58:01;;;;;;;12.95;6.90;;;17.80;99.90;;;;;;4993555;28;20219;-78
2023/07/03 04:00:52;;;;;;;11.32;7.30;;;17.80;99.90;;;;;;4994662;28;21949;-76
2023/07/03 04:03:41;;;;;;;13.88;6.93;;;17.80;99.90;;;;;;4977078;28;20321;-76
2023/07/03 04:06:37;;;;;;;15.43;7.38;;;17.90;99.90;;;;;;4974402;28;20227;-79
2023/07/03 04:09:29;;;;;;;15.63;7.30;;;17.90;99.90;;;;;;5016513;28;20247;-78
2023/07/03 04:12:18;;;;;;;11.52;6.45;;;17.90;99.90;;;;;;4988162;28;20235;-78
2023/07/03 04:15:09;;;;;;;15.32;7.00;;;18.10;99.90;;;;;;4983167;28;20262;-78
2023/07/03 04:17:59;;;;;;;13.90;6.88;;;18.20;99.90;;;;;;4984078;28;20227;-76
2023/07/03 04:20:49;;;;;;;11.88;7.05;;;18.30;99.90;;;;;;4986087;28;20310;-76
2023/07/03 04:23:37;;;;;;;13.43;7.70;;;18.30;99.90;;;;;;4980007;28;20350;-76
2023/07/03 04:26:27;;;;;;;12.50;7.20;;;18.40;99.90;;;;;;4980862;28;20234;-75
2023/07/03 04:29:15;;;;;;;16.50;7.20;;;18.50;99.90;;;;;;4986061;28;20236;-75
2023/07/03 04:32:05;;;;;;;11.90;6.57;;;18.40;99.90;;;;;;4988833;28;20427;-76
2023/07/03 04:34:57;;;;;;;13.73;7.10;;;18.60;99.90;;;;;;4976638;28;20226;-75
2023/07/03 04:37:46;;;;;;;12.63;7.70;;;18.70;99.90;;;;;;4980560;28;20314;-76
2023/07/03 04:40:35;;;;;;;17.10;6.97;;;18.80;99.90;;;;;;4982223;28;20245;-75
2023/07/03 04:43:24;;;;;;;14.07;7.70;;;18.90;99.90;;;;;;4982116;28;20242;-75
2023/07/03 04:46:13;;;;;;;15.32;6.93;;;18.90;99.90;;;;;;4977915;28;20219;-76
2023/07/03 04:49:04;;;;;;;12.82;7.47;;;19.00;99.90;;;;;;4981647;28;20223;-76
2023/07/03 04:51:54;;;;;;;12.73;6.97;;;19.10;99.90;;;;;;4976733;28;20235;-75
2023/07/03 04:54:44;;;;;;;10.40;7.00;;;19.10;99.90;;;;;;4974300;28;20231;-76
2023/07/03 04:57:33;;;;;;;10.95;7.13;;;19.20;99.90;;;;;;4973103;28;20230;-75
2023/07/03 05:00:22;;;;;;;14.13;7.10;;;19.30;99.90;;;;;;4973572;28;20233;-75
2023/07/03 05:03:10;;;;;;;13.43;6.38;;;19.50;99.90;;;;;;4978028;28;20231;-76
2023/07/03 05:06:00;;;;;;;12.68;6.97;;;19.60;99.90;;;;;;4984823;28;20307;-76
2023/07/03 05:08:50;;;;;;;11.57;6.95;;;19.70;99.90;;;;;;4987094;28;20543;-76
2023/07/03 05:11:40;;;;;;;16.05;6.70;;;20.00;99.90;;;;;;4972090;28;20321;-76
2023/07/03 05:14:28;;;;;;;11.77;7.18;;;20.00;99.90;;;;;;4993291;28;20239;-74
2023/07/03 05:17:17;;;;;;;14.70;6.45;;;20.10;99.90;;;;;;4981141;28;20635;-76
2023/07/03 05:20:08;;;;;;;13.15;7.13;;;20.20;99.90;;;;;;4984376;28;20218;-75
2023/07/03 05:22:58;;;;;;;11.70;6.57;;;20.30;99.90;;;;;;4977659;28;20294;-76
2023/07/03 05:25:48;;;;;;;10.35;6.13;;;20.50;99.90;;;;;;4969563;28;20228;-74
2023/07/03 05:28:37;;;;;;;12.25;6.82;;;20.40;99.90;;;;;;4977132;28;20227;-75
2023/07/03 05:31:27;;;;;;;12.10;6.95;;;20.60;99.90;;;;;;4970700;28;20250;-75
2023/07/03 05:34:15;;;;;;;17.00;7.20;;;20.70;99.90;;;;;;4989438;28;20231;-74
2023/07/03 05:37:05;;;;;;;10.15;5.93;;;20.80;99.90;;;;;;4974990;28;20300;-75
2023/07/03 05:39:59;;;;;;;14.30;6.28;;;20.80;98.60;;;;;;4987696;28;20234;-73
2023/07/03 05:42:50;;;;;;;13.93;6.55;;;20.60;97.90;;;;;;4977493;28;20733;-76
2023/07/03 05:45:39;;;;;;;10.80;6.13;;;20.60;98.30;;;;;;4974249;28;21041;-75
2023/07/03 05:48:28;;;;;;;16.75;6.30;;;20.70;98.50;;;;;;4979277;28;20305;-75
2023/07/03 05:51:17;;;;;;;11.85;6.20;;;20.80;97.80;;;;;;4980510;28;20840;-74
2023/07/03 05:54:06;;;;;;;12.35;5.88;;;20.90;99.30;;;;;;4975117;28;20614;-76
2023/07/03 05:56:58;;;;;;;10.38;5.70;;;21.10;98.40;;;;;;4985977;28;20218;-77
2023/07/03 05:59:50;;;;;;;11.30;5.38;;;21.20;98.80;;;;;;4980815;28;20233;-77
2023/07/03 06:02:39;;;;;;;10.77;5.45;;;21.20;98.20;;;;;;4972160;28;20948;-79
2023/07/03 06:05:28;;;;;;;11.27;5.68;;;21.30;97.90;;;;;;4980701;28;20230;-74
2023/07/03 06:08:20;;;;;;;11.10;5.50;;;21.40;96.60;;;;;;4978144;28;20223;-74
2023/07/03 06:11:09;;;;;;;11.00;5.10;;;21.40;96.00;;;;;;4987551;28;20723;-74
2023/07/03 06:13:58;;;;;;;13.90;5.75;;;21.50;95.50;;;;;;4980213;28;20261;-72
2023/07/03 06:16:50;;;;;;;13.90;5.85;;;21.60;95.80;;;;;;4979718;28;21172;-74
2023/07/03 06:19:39;;;;;;;13.98;5.18;;;21.60;95.90;;;;;;4970074;28;20229;-79
2023/07/03 06:22:27;;;;;;;10.63;5.40;;;21.80;95.40;;;;;;4974499;28;20293;-76
2023/07/03 06:25:16;;;;;;;11.23;4.95;;;21.80;94.60;;;;;;4975574;28;20234;-77
2023/07/03 06:28:05;;;;;;;13.05;5.20;;;21.90;96.20;;;;;;4975593;28;20215;-76
2023/07/03 06:30:54;;;;;;;11.15;4.90;;;21.90;95.90;;;;;;4993838;28;20229;-76
2023/07/03 06:33:45;;;;;;;10.20;5.07;;;22.00;94.80;;;;;;4975737;28;20219;-76
2023/07/03 06:36:34;;;;;;;14.10;5.60;;;22.10;94.70;;;;;;4984883;28;20262;-76
2023/07/03 06:39:23;;;;;;;11.55;4.95;;;22.50;95.20;;;;;;4974853;28;20270;-74
2023/07/03 06:42:13;;;;;;;11.35;5.00;;;24.20;91.40;;;;;;4977593;28;20234;-73
2023/07/03 06:45:06;;;;;;;15.77;5.32;;;24.30;92.80;;;;;;4979584;28;20219;-75
2023/07/03 06:47:55;;;;;;;13.98;5.53;;;24.30;87.30;;;;;;4967890;28;20366;-75
2023/07/03 06:50:45;;;;;;;9.55;5.05;;;24.10;90.70;;;;;;4969622;28;20223;-75
2023/07/03 06:53:34;;;;;;;11.75;5.22;;;24.30;90.00;;;;;;4988735;28;20292;-76
2023/07/03 06:56:24;;;;;;;10.95;5.10;;;24.20;89.00;;;;;;4970550;28;20787;-75
2023/07/03 06:59:14;;;;;;;12.40;5.80;;;23.40;87.30;;;;;;4980197;28;20355;-75
2023/07/03 07:02:02;;;;;;;12.45;5.97;;;23.40;89.50;;;;;;4970960;28;20346;-76
2023/07/03 07:04:55;;;;;;;11.15;6.13;;;23.00;87.90;;;;;;4972552;28;21550;-75
2023/07/03 07:07:45;;;;;;;12.05;6.10;;;23.10;90.40;;;;;;4970460;28;20218;-76
2023/07/03 07:10:38;;;;;;;11.32;5.95;;;23.30;89.50;;;;;;4985443;28;20827;-76
2023/07/03 07:13:27;;;;;;;13.27;5.72;;;23.20;86.70;;;;;;4979803;28;20227;-75
2023/07/03 07:16:18;;;;;;;10.68;5.70;;;23.30;87.70;;;;;;4979271;28;20234;-75
2023/07/03 07:19:09;;;;;;;12.00;6.18;;;24.10;88.20;;;;;;4984400;28;20310;-74
2023/07/03 07:21:58;;;;;;;11.52;5.47;;;24.20;87.10;;;;;;4980174;28;20223;-75
2023/07/03 07:24:48;;;;;;;11.55;5.70;;;24.10;84.50;;;;;;4975476;28;20392;-81
2023/07/03 07:27:37;;;;;;;7.65;4.95;;;24.10;83.20;;;;;;4980593;28;20216;-77
2023/07/03 07:30:27;;;;;;;11.20;5.53;;;24.50;86.10;;;;;;4967877;28;20230;-76
2023/07/03 07:33:16;;;;;;;11.93;5.43;;;24.90;83.70;;;;;;4989653;28;20223;-73
2023/07/03 07:36:06;;;;;;;9.65;5.20;;;25.40;81.50;;;;;;4975681;28;20300;-73
2023/07/03 07:38:55;;;;;;;10.88;5.53;;;25.80;81.90;;;;;;4972453;28;20326;-75
2023/07/03 07:41:46;;;;;;;11.10;5.20;;;26.20;82.50;;;;;;4977040;28;20229;-75
2023/07/03 07:44:35;;;;;;;19.20;5.80;;;26.50;80.90;;;;;;4967912;28;20227;-75
2023/07/03 07:47:24;;;;;;;10.68;5.38;;;26.80;78.30;;;;;;4971161;28;20782;-76
2023/07/03 07:50:14;;;;;;;13.77;5.25;;;27.20;74.40;;;;;;4977346;28;20247;-84
2023/07/03 07:53:03;;;;;;;11.35;5.55;;;27.50;74.10;;;;;;4983433;28;20223;-83
2023/07/03 07:55:52;;;;;;;10.80;5.40;;;27.60;74.70;;;;;;4981153;28;20229;-81
2023/07/03 07:58:43;;;;;;;8.05;5.53;;;27.70;69.10;;;;;;4990502;28;20242;-82
2023/07/03 08:01:32;;;;;;;7.78;4.72;;;27.90;70.40;;;;;;4971081;28;20289;-83
2023/07/03 08:04:21;;;;;;;8.98;5.25;;;28.00;71.60;;;;;;4987752;28;20280;-81
2023/07/03 08:07:10;;;;;;;11.85;5.38;;;28.40;71.10;;;;;;4967082;28;20215;-76
2023/07/03 08:09:59;;;;;;;13.02;5.50;;;28.60;71.00;;;;;;4980971;28;20288;-79
2023/07/03 08:12:52;;;;;;;9.15;5.35;;;28.60;65.40;;;;;;4975717;28;20231;-80
2023/07/03 08:15:45;;;;;;;10.00;5.63;;;28.20;63.40;;;;;;4976288;28;20284;-76
2023/07/03 08:18:34;;;;;;;12.00;5.75;;;28.20;68.80;;;;;;4981454;28;20222;-76
2023/07/03 08:21:26;;;;;;;10.77;6.18;;;28.10;65.70;;;;;;4966952;28;20230;-79
2023/07/03 08:24:15;;;;;;;146.23;132.50;;;27.80;65.20;;;;;;4982033;28;20223;-79
2023/07/03 08:27:04;;;;;;;10.55;6.60;;;27.70;67.30;;;;;;4972720;28;20568;-74
2023/07/03 08:29:53;;;;;;;8.18;5.40;;;27.60;66.30;;;;;;4974740;28;20691;-77
2023/07/03 08:32:46;;;;;;;9.18;5.82;;;26.90;65.80;;;;;;4977535;28;20638;-74
2023/07/03 08:35:35;;;;;;;9.10;5.47;;;27.70;67.60;;;;;;4975543;28;20601;-76
2023/07/03 08:38:31;;;;;;;13.93;8.00;;;27.40;64.60;;;;;;4979187;28;20313;-74
2023/07/03 08:41:22;;;;;;;8.68;5.72;;;28.10;69.70;;;;;;4967524;28;20419;-74
2023/07/03 08:44:12;;;;;;;13.52;6.22;;;28.90;67.90;;;;;;4983343;28;20983;-74
2023/07/03 08:47:03;;;;;;;7.93;5.45;;;29.30;64.60;;;;;;4982983;28;20305;-79
2023/07/03 08:50:03;;;;;;;12.43;5.82;;;29.20;65.00;;;;;;4992152;28;20275;-80
2023/07/03 08:53:03;;;;;;;7.55;5.45;;;29.00;66.90;;;;;;4962974;28;20242;-79
2023/07/03 08:55:57;;;;;;;11.95;6.45;;;29.60;64.50;;;;;;4980180;28;20294;-81
2023/07/03 08:58:46;;;;;;;12.70;6.72;;;29.60;63.60;;;;;;4989379;28;20217;-76
2023/07/03 09:01:42;;;;;;;10.07;5.80;;;28.80;61.70;;;;;;4979194;28;20230;-78
2023/07/03 09:04:45;;;;;;;8.98;6.15;;;28.80;65.50;;;;;;4978116;28;20211;-78
2023/07/03 09:07:41;;;;;;;14.63;6.20;;;28.40;67.90;;;;;;4972069;28;20904;-79
2023/07/03 09:10:37;;;;;;;9.93;6.10;;;28.70;67.40;;;;;;4984180;28;20685;-79
2023/07/03 09:13:33;;;;;;;8.93;5.88;;;28.70;66.90;;;;;;4973759;28;20272;-79
2023/07/03 09:16:23;;;;;;;12.00;6.60;;;28.70;64.10;;;;;;4989213;28;20589;-80
2023/07/03 09:19:20;;;;;;;13.55;6.85;;;28.30;63.50;;;;;;4997568;28;20246;-78
2023/07/03 09:22:17;;;;;;;11.00;6.13;;;27.80;64.70;;;;;;4972666;28;20226;-78
2023/07/03 09:25:16;;;;;;;10.57;6.97;;;27.40;65.90;;;;;;4986851;28;20222;-78
2023/07/03 09:28:07;;;;;;;10.30;6.60;;;28.30;64.40;;;;;;4983453;28;20231;-80
2023/07/03 09:30:56;;;;;;;9.75;6.43;;;28.50;66.60;;;;;;4967221;28;20769;-80
2023/07/03 09:33:45;;;;;;;10.32;6.30;;;28.10;65.50;;;;;;4991806;28;20598;-79
2023/07/03 09:36:37;;;;;;;9.60;6.05;;;28.70;67.40;;;;;;4988299;28;20257;-81
2023/07/03 09:39:27;;;;;;;11.98;6.82;;;28.90;67.60;;;;;;4970395;28;20709;-78
2023/07/03 09:42:17;;;;;;;12.50;6.82;;;30.40;68.00;;;;;;4983640;28;20218;-79
2023/07/03 09:45:15;;;;;;;13.50;7.07;;;30.90;60.70;;;;;;4979151;28;20219;-79
2023/07/03 09:48:18;;;;;;;13.60;6.97;;;29.60;61.40;;;;;;4975022;28;20560;-79
2023/07/03 09:51:07;;;;;;;10.77;6.47;;;29.20;63.90;;;;;;4991873;28;20221;-79
2023/07/03 09:53:59;;;;;;;10.50;6.85;;;29.10;65.10;;;;;;4989069;28;20340;-78
2023/07/03 09:56:49;;;;;;;12.18;6.93;;;29.80;63.30;;;;;;4977049;28;20219;-79
2023/07/03 09:59:40;;;;;;;9.52;6.80;;;28.80;62.80;;;;;;4981615;28;20229;-78
2023/07/03 10:02:29;;;;;;;12.02;6.63;;;27.50;64.50;;;;;;4989697;28;20226;-79
2023/07/03 10:05:28;;;;;;;11.02;6.97;;;28.00;65.00;;;;;;4978289;28;20361;-79
2023/07/03 10:08:23;;;;;;;12.32;7.32;;;29.90;63.70;;;;;;4983695;28;20222;-79
2023/07/03 10:11:24;;;;;;;10.30;6.63;;;29.60;63.80;;;;;;4984686;28;20222;-79
2023/07/03 10:14:23;;;;;;;9.95;6.43;;;30.10;63.00;;;;;;4980389;28;20237;-80
2023/07/03 10:17:15;;;;;;;10.65;6.80;;;29.70;61.60;;;;;;4983100;28;20237;-77
2023/07/03 10:20:09;;;;;;;11.63;6.90;;;29.50;61.10;;;;;;4972136;28;20222;-80
2023/07/03 10:23:02;;;;;;;8.43;6.30;;;30.00;60.80;;;;;;4995501;28;20225;-80
2023/07/03 10:25:56;;;;;;;12.60;6.80;;;31.30;61.40;;;;;;4978068;28;20818;-80
2023/07/03 10:28:49;;;;;;;12.07;6.43;;;30.60;60.80;;;;;;4976169;28;20236;-80
2023/07/03 10:31:47;;;;;;;13.85;6.72;;;30.00;63.00;;;;;;4985364;28;20645;-82
2023/07/03 10:34:46;;;;;;;13.05;6.75;;;29.50;63.10;;;;;;4976352;28;20306;-80
2023/07/03 10:37:44;;;;;;;11.18;6.32;;;31.90;60.10;;;;;;4964634;28;20317;-79
2023/07/03 10:40:41;;;;;;;12.68;7.25;;;35.00;56.90;;;;;;4968511;28;20230;-80
2023/07/03 10:43:35;;;;;;;11.02;6.65;;;36.50;58.40;;;;;;4986791;28;20229;-81
2023/07/03 10:46:29;;;;;;;11.70;7.15;;;34.90;56.10;;;;;;4977315;28;20230;-80
2023/07/03 10:49:24;;;;;;;10.77;6.80;;;35.30;55.50;;;;;;4982507;28;20233;-80
2023/07/03 10:52:27;;;;;;;10.95;6.78;;;37.40;52.90;;;;;;4981225;28;20237;-79
2023/07/03 10:55:25;;;;;;;11.88;6.90;;;38.30;51.70;;;;;;4983398;28;20305;-80
2023/07/03 10:58:26;;;;;;;13.05;7.40;;;38.70;50.80;;;;;;4994543;28;20785;-80
2023/07/03 11:01:21;;;;;;;11.45;6.63;;;38.50;50.00;;;;;;4987749;28;20243;-79
2023/07/03 11:04:20;;;;;;;9.77;6.70;;;37.20;50.10;;;;;;4987288;28;20249;-79
2023/07/03 11:07:21;;;;;;;11.27;6.63;;;37.20;51.40;;;;;;4974988;28;20231;-79
2023/07/03 11:10:17;;;;;;;8.90;6.53;;;36.80;51.60;;;;;;4973448;28;20281;-80
2023/07/03 11:13:15;;;;;;;9.80;6.75;;;38.50;50.00;;;;;;4977806;28;20227;-79
2023/07/03 11:16:12;;;;;;;9.95;6.28;;;39.80;48.10;;;;;;4983857;28;20701;-80
2023/07/03 11:19:17;;;;;;;10.38;6.68;;;41.00;47.40;;;;;;4979481;28;20221;-78
2023/07/03 11:22:17;;;;;;;8.75;6.45;;;40.30;45.80;;;;;;4990631;28;21059;-79
2023/07/03 11:25:28;;;;;;;14.15;6.82;;;40.10;46.70;;;;;;4981587;28;20218;-80
2023/07/03 11:28:22;;;;;;;8.73;6.88;;;41.20;47.60;;;;;;4980378;28;20233;-80
2023/07/03 11:31:15;;;;;;;10.90;7.03;;;38.20;45.50;;;;;;4976281;28;20245;-79
2023/07/03 11:34:05;;;;;;;11.75;7.40;;;36.10;49.50;;;;;;4979993;28;20289;-80
2023/07/03 11:36:57;;;;;;;9.65;6.97;;;33.80;52.30;;;;;;4973521;28;20226;-79
2023/07/03 11:39:51;;;;;;;8.88;6.70;;;31.80;53.80;;;;;;4989975;28;20226;-79
2023/07/03 11:42:40;;;;;;;10.50;6.93;;;33.60;53.60;;;;;;4967263;28;20316;-77
2023/07/03 11:45:32;;;;;;;11.10;6.78;;;32.10;54.30;;;;;;4973271;28;20328;-79
2023/07/03 11:48:28;;;;;;;9.73;6.38;;;30.90;56.10;;;;;;4980509;28;20231;-79
2023/07/03 11:51:32;;;;;;;16.88;7.60;;;29.50;58.20;;;;;;4987384;28;20233;-79
2023/07/03 11:54:24;;;;;;;10.25;6.95;;;29.00;59.50;;;;;;4961188;28;20222;-79
2023/07/03 11:57:32;;;;;;;14.57;10.45;;;29.50;59.30;;;;;;4983327;28;20235;-77
2023/07/03 12:00:29;;;;;;;9.88;7.50;;;29.90;58.70;;;;;;4992114;28;20225;-79
2023/07/03 12:03:51;;;;;;;11.25;7.00;;;29.00;59.90;;;;;;4987617;28;20321;-78
2023/07/03 12:06:48;;;;;;;10.32;7.20;;;29.10;60.00;;;;;;4976347;28;20606;-78
2023/07/03 12:09:37;;;;;;;10.43;7.10;;;28.90;57.60;;;;;;4986259;28;20226;-78
2023/07/03 12:12:34;;;;;;;21.85;8.27;;;28.20;58.90;;;;;;4982367;28;20679;-77
2023/07/03 12:15:22;;;;;;;10.63;7.25;;;28.00;60.70;;;;;;4981596;28;20326;-80
2023/07/03 12:18:13;;;;;;;12.88;7.20;;;32.00;57.10;;;;;;4971960;28;20249;-78
2023/07/03 12:21:06;;;;;;;11.98;7.80;;;37.70;51.70;;;;;;4992910;28;20716;-79
2023/07/03 12:23:55;;;;;;;12.85;7.22;;;42.00;47.50;;;;;;4983461;28;20230;-76
2023/07/03 12:26:52;;;;;;;13.10;6.97;;;38.80;46.30;;;;;;4985784;28;20230;-77
2023/07/03 12:29:48;;;;;;;9.90;6.95;;;37.90;45.80;;;;;;4977538;28;20264;-79
2023/07/03 12:32:38;;;;;;;21.00;7.80;;;36.70;47.50;;;;;;4979422;28;20223;-79
2023/07/03 12:35:34;;;;;;;10.48;7.07;;;34.00;51.00;;;;;;4983576;28;20851;-78
2023/07/03 12:38:23;;;;;;;10.30;7.07;;;33.30;50.00;;;;;;4981128;28;20242;-79
2023/07/03 12:41:13;;;;;;;10.50;7.00;;;39.60;48.00;;;;;;4978893;28;20229;-78
2023/07/03 12:44:03;;;;;;;8.45;6.65;;;42.10;43.70;;;;;;4981255;28;20218;-77
2023/07/03 12:47:08;;;;;;;13.38;7.90;;;41.40;42.70;;;;;;4983992;28;20222;-79
2023/07/03 12:49:59;;;;;;;17.77;7.57;;;38.30;45.70;;;;;;4983114;28;20214;-78
2023/07/03 12:52:57;;;;;;;10.60;7.05;;;35.10;49.00;;;;;;4991867;28;20231;-79
2023/07/03 12:55:49;;;;;;;9.30;7.40;;;34.20;49.20;;;;;;4981097;28;20222;-78
2023/07/03 12:58:39;;;;;;;10.50;7.10;;;38.40;47.50;;;;;;4981526;28;20241;-78
2023/07/03 13:01:28;;;;;;;9.50;6.95;;;34.60;48.40;;;;;;4994114;28;20222;-78
2023/07/03 13:04:28;;;;;;;11.23;7.30;;;31.90;51.00;;;;;;4991519;28;20219;-77
2023/07/03 13:07:19;;;;;;;12.48;7.90;;;30.70;53.70;;;;;;4983806;28;20567;-77
2023/07/03 13:10:12;;;;;;;11.82;7.05;;;30.10;55.10;;;;;;4982690;28;20242;-76
2023/07/03 13:13:09;;;;;;;10.30;8.02;;;29.80;56.10;;;;;;4982075;28;20211;-78
2023/07/03 13:15:58;;;;;;;14.10;7.43;;;29.40;56.80;;;;;;4989606;28;20218;-78
2023/07/03 13:19:02;;;;;;;13.75;7.45;;;28.80;57.50;;;;;;4990818;28;20368;-78
2023/07/03 13:21:53;;;;;;;11.57;7.50;;;28.70;58.90;;;;;;4983012;28;20218;-75
2023/07/03 13:24:47;;;;;;;10.55;7.75;;;28.70;60.40;;;;;;4977615;28;20229;-78
2023/07/03 13:27:36;;;;;;;9.80;7.18;;;28.50;59.00;;;;;;4979239;28;20234;-78
2023/07/03 13:30:28;;;;;;;14.93;7.30;;;28.40;59.70;;;;;;4967712;28;20230;-76
2023/07/03 13:33:28;;;;;;;9.57;7.47;;;28.40;58.80;;;;;;4980138;28;20230;-76
2023/07/03 13:36:23;;;;;;;10.60;7.15;;;28.20;58.10;;;;;;4980473;28;20273;-76
2023/07/03 13:39:27;;;;;;;10.82;7.55;;;28.20;60.20;;;;;;4979781;28;20503;-76
2023/07/03 13:42:16;;;;;;;10.30;6.85;;;28.00;59.00;;;;;;4978210;28;20230;-75
2023/07/03 13:45:08;;;;;;;11.50;7.43;;;27.80;59.60;;;;;;4976725;28;20284;-77
2023/07/03 13:47:57;;;;;;;12.15;7.80;;;27.50;59.90;;;;;;4979065;28;20717;-74
2023/07/03 13:50:46;;;;;;;13.40;7.55;;;27.70;60.50;;;;;;4992279;28;20226;-74
2023/07/03 13:53:35;;;;;;;11.48;7.82;;;27.80;60.30;;;;;;4977841;28;20258;-75
2023/07/03 13:56:27;;;;;;;10.80;7.97;;;27.90;62.00;;;;;;4968704;28;20240;-73
2023/07/03 13:59:19;;;;;;;12.68;7.78;;;28.20;62.00;;;;;;4978286;28;20227;-77
2023/07/03 14:02:08;;;;;;;10.52;7.53;;;28.00;59.40;;;;;;4972593;28;20252;-76
2023/07/03 14:04:57;;;;;;;13.23;8.02;;;27.90;59.70;;;;;;4991321;28;21016;-78
2023/07/03 14:07:46;;;;;;;14.90;7.85;;;27.70;59.90;;;;;;4982554;28;20229;-78
2023/07/03 14:10:35;;;;;;;11.82;7.97;;;27.40;59.90;;;;;;4979523;28;20257;-78
2023/07/03 14:13:26;;;;;;;10.95;7.60;;;27.50;60.00;;;;;;4983570;28;20241;-77
2023/07/03 14:16:15;;;;;;;14.02;7.97;;;27.50;60.60;;;;;;4993609;28;20446;-77
2023/07/03 14:19:04;;;;;;;13.25;8.27;;;27.30;62.10;;;;;;4981083;28;20219;-79
2023/07/03 14:21:55;;;;;;;14.13;8.85;;;27.10;63.30;;;;;;4981421;28;20233;-77
2023/07/03 14:24:44;;;;;;;17.83;8.27;;;27.10;63.60;;;;;;4983211;28;20230;-78
2023/07/03 14:27:35;;;;;;;10.88;7.85;;;26.90;63.20;;;;;;4971366;28;20233;-78
2023/07/03 14:30:26;;;;;;;12.05;8.20;;;27.00;63.60;;;;;;4978525;28;20236;-76
2023/07/03 14:33:16;;;;;;;13.82;7.78;;;26.90;64.20;;;;;;4979244;28;20219;-78
2023/07/03 14:36:05;;;;;;;12.05;7.70;;;26.80;64.60;;;;;;4979531;28;20724;-78
2023/07/03 14:38:55;;;;;;;13.10;8.35;;;26.80;64.70;;;;;;4993027;28;20721;-78
2023/07/03 14:41:43;;;;;;;21.15;8.32;;;26.80;64.70;;;;;;4992351;28;20297;-75
2023/07/03 14:44:35;;;;;;;14.68;8.32;;;26.70;64.40;;;;;;4990853;28;20229;-77